sensor_id;sensor_type;location;lat;lon;timestamp;pressure;altitude;pressure_sealevel;temperature;humidity
19594;BME280;9944;48.240;16.478;2022-09-21T00:00:06;100382.16;;;11.19;71.92
19594;BME280;9944;48.240;16.478;2022-09-21T00:04:09;100382.09;;;11.16;71.95
19594;BME280;9944;48.240;16.478;2022-09-21T00:08:14;100383.84;;;11.14;71.97
19594;BME280;9944;48.240;16.478;2022-09-21T00:12:17;100378.56;;;11.14;72.11
19594;BME280;9944;48.240;16.478;2022-09-21T00:16:21;100376.84;;;11.16;72.33
19594;BME280;9944;48.240;16.478;2022-09-21T00:20:26;100375.97;;;11.17;72.22
19594;BME280;9944;48.240;16.478;2022-09-21T00:24:31;100380.41;;;11.18;72.08
19594;BME280;9944;48.240;16.478;2022-09-21T00:28:36;100379.47;;;11.15;72.04
19594;BME280;9944;48.240;16.478;2022-09-21T00:32:41;100375.97;;;11.16;72.12
19594;BME280;9944;48.240;16.478;2022-09-21T00:36:44;100367.19;;;11.15;72.41
19594;BME280;9944;48.240;16.478;2022-09-21T00:40:49;100375.09;;;11.17;72.11
19594;BME280;9944;48.240;16.478;2022-09-21T00:44:52;100374.19;;;11.16;72.19
19594;BME280;9944;48.240;16.478;2022-09-21T00:48:56;100374.22;;;11.15;72.12
19594;BME280;9944;48.240;16.478;2022-09-21T00:53:02;100378.56;;;11.14;72.06
19594;BME280;9944;48.240;16.478;2022-09-21T00:57:08;100375.03;;;11.10;72.10
19594;BME280;9944;48.240;16.478;2022-09-21T01:01:12;100371.53;;;11.10;72.28
19594;BME280;9944;48.240;16.478;2022-09-21T01:05:19;100373.25;;;11.08;71.98
19594;BME280;9944;48.240;16.478;2022-09-21T01:09:22;100371.41;;;11.02;71.81
19594;BME280;9944;48.240;16.478;2022-09-21T01:13:34;100377.56;;;11.01;72.11
19594;BME280;9944;48.240;16.478;2022-09-21T01:17:45;100373.13;;;10.99;72.11
19594;BME280;9944;48.240;16.478;2022-09-21T01:22:01;100378.38;;;10.99;72.14
19594;BME280;9944;48.240;16.478;2022-09-21T01:26:30;100371.34;;;10.95;72.09
19594;BME280;9944;48.240;16.478;2022-09-21T01:30:39;100378.34;;;10.94;71.99
19594;BME280;9944;48.240;16.478;2022-09-21T01:34:52;100388.91;;;10.96;72.28
19594;BME280;9944;48.240;16.478;2022-09-21T01:39:00;100381.00;;;10.94;72.25
19594;BME280;9944;48.240;16.478;2022-09-21T01:43:05;100394.19;;;10.96;72.28
19594;BME280;9944;48.240;16.478;2022-09-21T01:47:13;100387.97;;;10.93;72.35
19594;BME280;9944;48.240;16.478;2022-09-21T01:51:20;100384.47;;;10.93;72.38
19594;BME280;9944;48.240;16.478;2022-09-21T01:55:26;100385.34;;;10.93;72.58
19594;BME280;9944;48.240;16.478;2022-09-21T01:59:35;100386.25;;;10.94;72.54
19594;BME280;9944;48.240;16.478;2022-09-21T02:03:47;100388.91;;;10.96;72.62
19594;BME280;9944;48.240;16.478;2022-09-21T02:07:53;100388.03;;;10.97;72.52
19594;BME280;9944;48.240;16.478;2022-09-21T02:11:57;100391.56;;;10.97;72.24
19594;BME280;9944;48.240;16.478;2022-09-21T02:16:15;100395.94;;;10.98;72.16
19594;BME280;9944;48.240;16.478;2022-09-21T02:20:29;100396.84;;;10.97;72.20
19594;BME280;9944;48.240;16.478;2022-09-21T02:24:38;100396.81;;;10.96;72.02
19594;BME280;9944;48.240;16.478;2022-09-21T02:28:48;100400.28;;;10.95;72.09
19594;BME280;9944;48.240;16.478;2022-09-21T02:32:58;100410.84;;;10.96;72.27
19594;BME280;9944;48.240;16.478;2022-09-21T02:37:09;100414.38;;;10.98;72.31
19594;BME280;9944;48.240;16.478;2022-09-21T02:41:15;100424.09;;;11.01;72.13
19594;BME280;9944;48.240;16.478;2022-09-21T02:45:23;100421.44;;;10.99;71.86
19594;BME280;9944;48.240;16.478;2022-09-21T02:49:32;100412.63;;;10.99;71.96
19594;BME280;9944;48.240;16.478;2022-09-21T02:53:40;100408.25;;;10.98;71.60
19594;BME280;9944;48.240;16.478;2022-09-21T02:57:44;100416.94;;;10.93;71.76
19594;BME280;9944;48.240;16.478;2022-09-21T03:01:50;100423.06;;;10.91;71.79
19594;BME280;9944;48.240;16.478;2022-09-21T03:05:54;100420.41;;;10.89;71.75
19594;BME280;9944;48.240;16.478;2022-09-21T03:09:58;100422.19;;;10.90;71.70
19594;BME280;9944;48.240;16.478;2022-09-21T03:14:02;100422.16;;;10.87;71.35
19594;BME280;9944;48.240;16.478;2022-09-21T03:18:08;100422.97;;;10.85;71.60
19594;BME280;9944;48.240;16.478;2022-09-21T03:22:12;100437.03;;;10.84;71.57
19594;BME280;9944;48.240;16.478;2022-09-21T03:26:16;100441.41;;;10.83;71.43
19594;BME280;9944;48.240;16.478;2022-09-21T03:30:23;100436.06;;;10.79;71.51
19594;BME280;9944;48.240;16.478;2022-09-21T03:34:27;100437.84;;;10.78;71.11
19594;BME280;9944;48.240;16.478;2022-09-21T03:38:33;100440.44;;;10.77;71.50
19594;BME280;9944;48.240;16.478;2022-09-21T03:42:38;100444.78;;;10.73;71.37
19594;BME280;9944;48.240;16.478;2022-09-21T03:46:42;100450.88;;;10.72;71.42
19594;BME280;9944;48.240;16.478;2022-09-21T03:50:45;100449.09;;;10.71;71.74
19594;BME280;9944;48.240;16.478;2022-09-21T03:54:48;100457.84;;;10.67;71.20
19594;BME280;9944;48.240;16.478;2022-09-21T03:58:53;100468.31;;;10.64;71.15
19594;BME280;9944;48.240;16.478;2022-09-21T04:02:56;100466.56;;;10.63;71.59
19594;BME280;9944;48.240;16.478;2022-09-21T04:06:59;100469.13;;;10.60;71.55
19594;BME280;9944;48.240;16.478;2022-09-21T04:11:08;100465.59;;;10.58;71.86
19594;BME280;9944;48.240;16.478;2022-09-21T04:15:15;100471.72;;;10.57;71.85
19594;BME280;9944;48.240;16.478;2022-09-21T04:19:20;100477.88;;;10.55;71.60
19594;BME280;9944;48.240;16.478;2022-09-21T04:23:23;100480.47;;;10.54;71.92
19594;BME280;9944;48.240;16.478;2022-09-21T04:27:26;100482.19;;;10.53;72.10
19594;BME280;9944;48.240;16.478;2022-09-21T04:31:30;100479.53;;;10.50;72.11
19594;BME280;9944;48.240;16.478;2022-09-21T04:35:33;100490.09;;;10.53;72.19
19594;BME280;9944;48.240;16.478;2022-09-21T04:39:37;100496.28;;;10.55;72.15
19594;BME280;9944;48.240;16.478;2022-09-21T04:43:41;100498.91;;;10.55;72.64
19594;BME280;9944;48.240;16.478;2022-09-21T04:47:45;100495.41;;;10.57;72.29
19594;BME280;9944;48.240;16.478;2022-09-21T04:51:48;100499.72;;;10.53;72.63
19594;BME280;9944;48.240;16.478;2022-09-21T04:55:51;100504.94;;;10.50;72.23
19594;BME280;9944;48.240;16.478;2022-09-21T04:59:56;100511.09;;;10.50;72.59
19594;BME280;9944;48.240;16.478;2022-09-21T05:04:01;100511.97;;;10.51;73.10
19594;BME280;9944;48.240;16.478;2022-09-21T05:08:04;100518.19;;;10.54;72.80
19594;BME280;9944;48.240;16.478;2022-09-21T05:12:07;100515.56;;;10.56;73.01
19594;BME280;9944;48.240;16.478;2022-09-21T05:16:10;100516.50;;;10.60;73.01
19594;BME280;9944;48.240;16.478;2022-09-21T05:20:15;100521.84;;;10.63;73.20
19594;BME280;9944;48.240;16.478;2022-09-21T05:24:18;100516.59;;;10.66;72.90
19594;BME280;9944;48.240;16.478;2022-09-21T05:28:22;100520.09;;;10.65;72.68
19594;BME280;9944;48.240;16.478;2022-09-21T05:32:31;100527.97;;;10.63;72.90
19594;BME280;9944;48.240;16.478;2022-09-21T05:36:47;100535.03;;;10.64;72.82
19594;BME280;9944;48.240;16.478;2022-09-21T05:40:53;100535.88;;;10.65;72.64
19594;BME280;9944;48.240;16.478;2022-09-21T05:44:56;100535.94;;;10.68;72.82
19594;BME280;9944;48.240;16.478;2022-09-21T05:49:03;100527.16;;;10.69;72.76
19594;BME280;9944;48.240;16.478;2022-09-21T05:53:36;100535.09;;;10.70;73.02
19594;BME280;9944;48.240;16.478;2022-09-21T05:57:45;100538.69;;;10.76;72.87
19594;BME280;9944;48.240;16.478;2022-09-21T06:01:59;100548.47;;;10.84;72.51
19594;BME280;9944;48.240;16.478;2022-09-21T06:06:08;100548.56;;;10.89;72.58
19594;BME280;9944;48.240;16.478;2022-09-21T06:10:13;100545.19;;;10.99;72.69
19594;BME280;9944;48.240;16.478;2022-09-21T06:14:16;100544.44;;;11.08;72.22
19594;BME280;9944;48.240;16.478;2022-09-21T06:18:25;100564.69;;;11.12;72.33
19594;BME280;9944;48.240;16.478;2022-09-21T06:22:28;100553.31;;;11.13;72.01
19594;BME280;9944;48.240;16.478;2022-09-21T06:26:33;100561.28;;;11.19;71.77
19594;BME280;9944;48.240;16.478;2022-09-21T06:30:37;100564.88;;;11.24;72.01
19594;BME280;9944;48.240;16.478;2022-09-21T06:34:42;100555.38;;;11.36;71.73
19594;BME280;9944;48.240;16.478;2022-09-21T06:38:45;100563.47;;;11.51;71.69
19594;BME280;9944;48.240;16.478;2022-09-21T06:42:54;100573.34;;;11.67;71.41
19594;BME280;9944;48.240;16.478;2022-09-21T06:46:57;100570.00;;;11.81;71.16
19594;BME280;9944;48.240;16.478;2022-09-21T06:51:03;100571.91;;;11.91;71.14
19594;BME280;9944;48.240;16.478;2022-09-21T06:55:07;100567.59;;;11.99;70.69
19594;BME280;9944;48.240;16.478;2022-09-21T06:59:12;100569.41;;;12.03;70.17
19594;BME280;9944;48.240;16.478;2022-09-21T07:03:15;100574.69;;;12.05;70.29
19594;BME280;9944;48.240;16.478;2022-09-21T07:07:19;100576.47;;;12.08;70.33
19594;BME280;9944;48.240;16.478;2022-09-21T07:11:22;100583.63;;;12.18;70.18
19594;BME280;9944;48.240;16.478;2022-09-21T07:15:27;100578.34;;;12.18;69.58
19594;BME280;9944;48.240;16.478;2022-09-21T07:19:31;100583.59;;;12.15;69.51
19594;BME280;9944;48.240;16.478;2022-09-21T07:23:35;100586.31;;;12.22;69.43
19594;BME280;9944;48.240;16.478;2022-09-21T07:27:38;100589.03;;;12.30;69.49
19594;BME280;9944;48.240;16.478;2022-09-21T07:31:43;100589.09;;;12.36;69.36
19594;BME280;9944;48.240;16.478;2022-09-21T07:35:50;100599.66;;;12.36;69.55
19594;BME280;9944;48.240;16.478;2022-09-21T07:39:54;100597.91;;;12.37;69.22
19594;BME280;9944;48.240;16.478;2022-09-21T07:43:57;100597.03;;;12.38;69.18
19594;BME280;9944;48.240;16.478;2022-09-21T07:48:05;100600.56;;;12.38;69.33
19594;BME280;9944;48.240;16.478;2022-09-21T07:52:10;100604.97;;;12.42;69.16
19594;BME280;9944;48.240;16.478;2022-09-21T07:56:14;100603.25;;;12.46;69.04
19594;BME280;9944;48.240;16.478;2022-09-21T08:00:18;100610.44;;;12.61;69.16
19594;BME280;9944;48.240;16.478;2022-09-21T08:04:22;100598.31;;;12.83;68.94
19594;BME280;9944;48.240;16.478;2022-09-21T08:08:26;100595.84;;;13.06;68.98
19594;BME280;9944;48.240;16.478;2022-09-21T08:12:29;100610.91;;;13.16;67.97
19594;BME280;9944;48.240;16.478;2022-09-21T08:16:32;100604.72;;;13.14;67.68
19594;BME280;9944;48.240;16.478;2022-09-21T08:20:37;100609.13;;;13.17;67.95
19594;BME280;9944;48.240;16.478;2022-09-21T08:24:40;100600.38;;;13.26;67.38
19594;BME280;9944;48.240;16.478;2022-09-21T08:28:46;100608.41;;;13.38;67.78
19594;BME280;9944;48.240;16.478;2022-09-21T08:32:53;100605.84;;;13.47;67.15
19594;BME280;9944;48.240;16.478;2022-09-21T08:36:57;100611.16;;;13.56;66.55
19594;BME280;9944;48.240;16.478;2022-09-21T08:41:08;100612.94;;;13.61;66.21
19594;BME280;9944;48.240;16.478;2022-09-21T08:45:17;100611.28;;;13.75;66.38
19594;BME280;9944;48.240;16.478;2022-09-21T08:49:24;100608.69;;;13.87;66.04
19594;BME280;9944;48.240;16.478;2022-09-21T08:53:33;100613.13;;;14.04;66.35
19594;BME280;9944;48.240;16.478;2022-09-21T08:57:36;100604.31;;;14.05;65.08
19594;BME280;9944;48.240;16.478;2022-09-21T09:01:51;100605.22;;;14.16;64.74
19594;BME280;9944;48.240;16.478;2022-09-21T09:05:59;100607.91;;;14.31;65.45
19594;BME280;9944;48.240;16.478;2022-09-21T09:10:21;100596.47;;;14.51;64.83
19594;BME280;9944;48.240;16.478;2022-09-21T09:14:51;100608.88;;;14.61;64.66
19594;BME280;9944;48.240;16.478;2022-09-21T09:19:02;100598.28;;;14.66;64.29
19594;BME280;9944;48.240;16.478;2022-09-21T09:23:12;100597.41;;;14.65;63.52
19594;BME280;9944;48.240;16.478;2022-09-21T09:27:26;100594.69;;;14.55;64.13
19594;BME280;9944;48.240;16.478;2022-09-21T09:31:32;100590.31;;;14.55;64.10
19594;BME280;9944;48.240;16.478;2022-09-21T09:35:39;100598.25;;;14.54;63.97
19594;BME280;9944;48.240;16.478;2022-09-21T09:39:50;100603.53;;;14.49;64.20
19594;BME280;9944;48.240;16.478;2022-09-21T09:44:07;100598.22;;;14.47;63.87
19594;BME280;9944;48.240;16.478;2022-09-21T09:48:35;100592.94;;;14.46;64.04
19594;BME280;9944;48.240;16.478;2022-09-21T09:52:43;100592.06;;;14.50;64.29
19594;BME280;9944;48.240;16.478;2022-09-21T09:56:47;100598.31;;;14.58;63.86
19594;BME280;9944;48.240;16.478;2022-09-21T10:00:52;100594.75;;;14.72;64.29
19594;BME280;9944;48.240;16.478;2022-09-21T10:04:57;100587.69;;;14.78;64.25
19594;BME280;9944;48.240;16.478;2022-09-21T10:09:24;100578.84;;;14.84;63.63
19594;BME280;9944;48.240;16.478;2022-09-21T10:13:28;100577.97;;;14.85;63.40
19594;BME280;9944;48.240;16.478;2022-09-21T10:17:33;100567.38;;;14.88;63.49
19594;BME280;9944;48.240;16.478;2022-09-21T10:21:38;100569.16;;;14.95;63.30
19594;BME280;9944;48.240;16.478;2022-09-21T10:25:53;100566.47;;;15.11;63.50
19594;BME280;9944;48.240;16.478;2022-09-21T10:29:56;100564.66;;;15.27;62.78
19594;BME280;9944;48.240;16.478;2022-09-21T10:34:12;100556.69;;;15.37;62.37
19594;BME280;9944;48.240;16.478;2022-09-21T10:38:17;100553.06;;;15.57;62.49
19594;BME280;9944;48.240;16.478;2022-09-21T10:42:23;100556.63;;;15.57;62.29
19594;BME280;9944;48.240;16.478;2022-09-21T10:46:33;100545.97;;;15.63;61.49
19594;BME280;9944;48.240;16.478;2022-09-21T10:50:40;100542.44;;;15.66;60.48
19594;BME280;9944;48.240;16.478;2022-09-21T10:54:46;100537.09;;;15.78;60.14
19594;BME280;9944;48.240;16.478;2022-09-21T10:59:20;100537.91;;;15.91;60.58
19594;BME280;9944;48.240;16.478;2022-09-21T11:03:41;100543.09;;;16.14;60.05
19594;BME280;9944;48.240;16.478;2022-09-21T11:07:53;100543.91;;;16.23;59.84
19594;BME280;9944;48.240;16.478;2022-09-21T11:12:04;100545.59;;;16.36;58.93
19594;BME280;9944;48.240;16.478;2022-09-21T11:16:13;100547.38;;;16.37;58.08
19594;BME280;9944;48.240;16.478;2022-09-21T11:20:24;100541.97;;;16.46;58.23
19594;BME280;9944;48.240;16.478;2022-09-21T11:24:38;100535.69;;;16.58;57.22
19594;BME280;9944;48.240;16.478;2022-09-21T11:28:47;100532.97;;;16.66;57.30
19594;BME280;9944;48.240;16.478;2022-09-21T11:33:06;100528.41;;;16.79;57.22
19594;BME280;9944;48.240;16.478;2022-09-21T11:37:19;100523.06;;;16.82;56.41
19594;BME280;9944;48.240;16.478;2022-09-21T11:41:57;100534.66;;;16.74;55.81
19594;BME280;9944;48.240;16.478;2022-09-21T11:46:11;100527.63;;;16.69;56.18
19594;BME280;9944;48.240;16.478;2022-09-21T11:50:30;100528.59;;;16.60;56.14
19594;BME280;9944;48.240;16.478;2022-09-21T11:54:56;100525.94;;;16.59;55.88
19594;BME280;9944;48.240;16.478;2022-09-21T11:59:18;100521.44;;;16.68;55.70
19594;BME280;9944;48.240;16.478;2022-09-21T12:03:43;100523.06;;;16.83;55.70
19594;BME280;9944;48.240;16.478;2022-09-21T12:08:08;100502.53;;;17.01;55.52
19594;BME280;9944;48.240;16.478;2022-09-21T12:12:19;100509.59;;;17.05;54.10
19594;BME280;9944;48.240;16.478;2022-09-21T12:16:32;100507.00;;;16.97;53.99
19594;BME280;9944;48.240;16.478;2022-09-21T12:20:43;100488.38;;;16.97;53.96
19594;BME280;9944;48.240;16.478;2022-09-21T12:24:50;100484.84;;;16.97;54.13
19594;BME280;9944;48.240;16.478;2022-09-21T12:28:59;100491.91;;;16.99;53.86
19594;BME280;9944;48.240;16.478;2022-09-21T12:33:11;100485.53;;;17.14;54.67
19594;BME280;9944;48.240;16.478;2022-09-21T12:37:20;100484.53;;;17.24;54.75
19594;BME280;9944;48.240;16.478;2022-09-21T12:41:31;100478.19;;;17.36;54.35
19594;BME280;9944;48.240;16.478;2022-09-21T12:45:38;100482.47;;;17.48;53.79
19594;BME280;9944;48.240;16.478;2022-09-21T12:49:46;100472.69;;;17.50;53.49
19594;BME280;9944;48.240;16.478;2022-09-21T12:53:53;100470.88;;;17.54;53.44
19594;BME280;9944;48.240;16.478;2022-09-21T12:58:03;100473.56;;;17.52;52.39
19594;BME280;9944;48.240;16.478;2022-09-21T13:02:19;100470.88;;;17.54;53.31
19594;BME280;9944;48.240;16.478;2022-09-21T13:06:52;100469.91;;;17.59;52.59
19594;BME280;9944;48.240;16.478;2022-09-21T13:11:01;100470.78;;;17.58;52.78
19594;BME280;9944;48.240;16.478;2022-09-21T13:15:12;100470.84;;;17.55;52.94
19594;BME280;9944;48.240;16.478;2022-09-21T13:19:20;100466.44;;;17.54;52.66
19594;BME280;9944;48.240;16.478;2022-09-21T13:23:29;100460.31;;;17.47;52.34
19594;BME280;9944;48.240;16.478;2022-09-21T13:27:57;100461.25;;;17.45;52.83
19594;BME280;9944;48.240;16.478;2022-09-21T13:32:06;100456.78;;;17.45;52.84
19594;BME280;9944;48.240;16.478;2022-09-21T13:36:30;100457.69;;;17.43;53.26
19594;BME280;9944;48.240;16.478;2022-09-21T13:40:34;100446.22;;;17.39;53.47
19594;BME280;9944;48.240;16.478;2022-09-21T13:44:41;100448.91;;;17.38;53.84
19594;BME280;9944;48.240;16.478;2022-09-21T13:48:51;100442.78;;;17.33;53.56
19594;BME280;9944;48.240;16.478;2022-09-21T13:52:56;100445.56;;;17.20;53.98
19594;BME280;9944;48.240;16.478;2022-09-21T13:57:18;100433.22;;;17.16;53.77
19594;BME280;9944;48.240;16.478;2022-09-21T14:01:24;100451.81;;;17.16;55.08
19594;BME280;9944;48.240;16.478;2022-09-21T14:05:51;100442.97;;;17.16;55.67
19594;BME280;9944;48.240;16.478;2022-09-21T14:09:57;100448.22;;;17.22;55.57
19594;BME280;9944;48.240;16.478;2022-09-21T14:14:07;100440.31;;;17.16;55.21
19594;BME280;9944;48.240;16.478;2022-09-21T14:18:35;100437.69;;;17.11;55.39
19594;BME280;9944;48.240;16.478;2022-09-21T14:22:41;100448.38;;;17.06;54.62
19594;BME280;9944;48.240;16.478;2022-09-21T14:26:49;100440.53;;;16.96;54.47
19594;BME280;9944;48.240;16.478;2022-09-21T14:31:00;100437.97;;;16.89;55.00
19594;BME280;9944;48.240;16.478;2022-09-21T14:35:06;100435.31;;;16.83;55.04
19594;BME280;9944;48.240;16.478;2022-09-21T14:39:16;100434.47;;;16.81;55.43
19594;BME280;9944;48.240;16.478;2022-09-21T14:43:24;100438.00;;;16.83;55.80
19594;BME280;9944;48.240;16.478;2022-09-21T14:47:46;100437.13;;;16.87;55.84
19594;BME280;9944;48.240;16.478;2022-09-21T14:52:01;100444.19;;;16.85;55.87
19594;BME280;9944;48.240;16.478;2022-09-21T14:56:33;100438.00;;;16.82;56.07
19594;BME280;9944;48.240;16.478;2022-09-21T15:00:42;100431.84;;;16.78;56.07
19594;BME280;9944;48.240;16.478;2022-09-21T15:04:57;100437.16;;;16.78;56.46
19594;BME280;9944;48.240;16.478;2022-09-21T15:09:17;100422.97;;;16.82;55.68
19594;BME280;9944;48.240;16.478;2022-09-21T15:13:52;100427.44;;;16.77;55.63
19594;BME280;9944;48.240;16.478;2022-09-21T15:18:01;100423.06;;;16.70;54.92
19594;BME280;9944;48.240;16.478;2022-09-21T15:22:16;100431.13;;;16.61;54.52
19594;BME280;9944;48.240;16.478;2022-09-21T15:26:22;100430.31;;;16.55;55.12
19594;BME280;9944;48.240;16.478;2022-09-21T15:30:30;100433.91;;;16.51;55.01
19594;BME280;9944;48.240;16.478;2022-09-21T15:34:34;100426.91;;;16.43;54.56
19594;BME280;9944;48.240;16.478;2022-09-21T15:38:46;100432.28;;;16.33;54.56
19594;BME280;9944;48.240;16.478;2022-09-21T15:43:01;100433.22;;;16.29;54.77
19594;BME280;9944;48.240;16.478;2022-09-21T15:47:07;100423.50;;;16.27;55.11
19594;BME280;9944;48.240;16.478;2022-09-21T15:51:17;100434.13;;;16.25;54.97
19594;BME280;9944;48.240;16.478;2022-09-21T15:55:24;100435.00;;;16.26;55.19
19594;BME280;9944;48.240;16.478;2022-09-21T15:59:27;100428.81;;;16.27;54.83
19594;BME280;9944;48.240;16.478;2022-09-21T16:03:31;100439.47;;;16.22;54.87
19594;BME280;9944;48.240;16.478;2022-09-21T16:07:36;100443.00;;;16.19;54.86
19594;BME280;9944;48.240;16.478;2022-09-21T16:11:40;100441.28;;;16.15;55.07
19594;BME280;9944;48.240;16.478;2022-09-21T16:15:59;100443.94;;;16.15;55.69
19594;BME280;9944;48.240;16.478;2022-09-21T16:20:20;100442.22;;;16.13;55.90
19594;BME280;9944;48.240;16.478;2022-09-21T16:24:24;100449.31;;;16.09;55.99
19594;BME280;9944;48.240;16.478;2022-09-21T16:28:36;100447.56;;;16.07;56.20
19594;BME280;9944;48.240;16.478;2022-09-21T16:32:40;100455.53;;;16.02;56.38
19594;BME280;9944;48.240;16.478;2022-09-21T16:36:44;100460.91;;;15.96;55.82
19594;BME280;9944;48.240;16.478;2022-09-21T16:40:47;100456.53;;;15.89;56.26
19594;BME280;9944;48.240;16.478;2022-09-21T16:44:54;100468.06;;;15.85;55.95
19594;BME280;9944;48.240;16.478;2022-09-21T16:48:57;100455.69;;;15.80;55.45
19594;BME280;9944;48.240;16.478;2022-09-21T16:53:01;100466.34;;;15.71;55.00
19594;BME280;9944;48.240;16.478;2022-09-21T16:57:05;100470.78;;;15.68;54.88
19594;BME280;9944;48.240;16.478;2022-09-21T17:01:11;100464.63;;;15.64;54.44
19594;BME280;9944;48.240;16.478;2022-09-21T17:05:14;100470.81;;;15.60;54.33
19594;BME280;9944;48.240;16.478;2022-09-21T17:09:24;100474.41;;;15.54;54.31
19594;BME280;9944;48.240;16.478;2022-09-21T17:13:30;100478.81;;;15.54;54.50
19594;BME280;9944;48.240;16.478;2022-09-21T17:17:35;100487.66;;;15.56;54.44
19594;BME280;9944;48.240;16.478;2022-09-21T17:21:39;100482.34;;;15.51;54.37
19594;BME280;9944;48.240;16.478;2022-09-21T17:25:43;100496.53;;;15.46;54.30
19594;BME280;9944;48.240;16.478;2022-09-21T17:29:47;100490.38;;;15.42;54.84
19594;BME280;9944;48.240;16.478;2022-09-21T17:33:52;100494.81;;;15.38;54.90
19594;BME280;9944;48.240;16.478;2022-09-21T17:37:56;100493.94;;;15.36;55.23
19594;BME280;9944;48.240;16.478;2022-09-21T17:42:02;100506.28;;;15.34;55.55
19594;BME280;9944;48.240;16.478;2022-09-21T17:46:11;100499.25;;;15.30;55.52
19594;BME280;9944;48.240;16.478;2022-09-21T17:50:23;100495.72;;;15.28;56.06
19594;BME280;9944;48.240;16.478;2022-09-21T17:58:44;100501.94;;;15.21;56.29
19594;BME280;9944;48.240;16.478;2022-09-21T18:02:49;100494.00;;;15.19;56.61
19594;BME280;9944;48.240;16.478;2022-09-21T18:06:55;100507.25;;;15.16;56.57
19594;BME280;9944;48.240;16.478;2022-09-21T18:11:05;100505.50;;;15.07;56.58
19594;BME280;9944;48.240;16.478;2022-09-21T18:15:18;100516.09;;;15.01;56.94
19594;BME280;9944;48.240;16.478;2022-09-21T18:19:31;100506.41;;;14.97;57.36
19594;BME280;9944;48.240;16.478;2022-09-21T18:23:49;100516.13;;;14.92;57.60
19594;BME280;9944;48.240;16.478;2022-09-21T18:27:56;100520.56;;;14.84;57.96
19594;BME280;9944;48.240;16.478;2022-09-21T18:32:13;100525.00;;;14.77;58.08
19594;BME280;9944;48.240;16.478;2022-09-21T18:36:25;100521.44;;;14.74;58.64
19594;BME280;9944;48.240;16.478;2022-09-21T18:40:37;100521.47;;;14.71;58.78
19594;BME280;9944;48.240;16.478;2022-09-21T18:44:48;100538.25;;;14.68;58.78
19594;BME280;9944;48.240;16.478;2022-09-21T18:48:57;100529.41;;;14.63;58.50
19594;BME280;9944;48.240;16.478;2022-09-21T18:53:10;100540.88;;;14.57;58.94
19594;BME280;9944;48.240;16.478;2022-09-21T18:57:17;100529.38;;;14.54;58.84
19594;BME280;9944;48.240;16.478;2022-09-21T19:01:21;100540.84;;;14.51;59.03
19594;BME280;9944;48.240;16.478;2022-09-21T19:05:25;100536.44;;;14.47;58.95
19594;BME280;9944;48.240;16.478;2022-09-21T19:09:36;100547.94;;;14.43;58.93
19594;BME280;9944;48.240;16.478;2022-09-21T19:13:47;100550.56;;;14.38;59.26
19594;BME280;9944;48.240;16.478;2022-09-21T19:18:03;100551.44;;;14.32;59.13
19594;BME280;9944;48.240;16.478;2022-09-21T19:22:14;100545.28;;;14.29;59.38
19594;BME280;9944;48.240;16.478;2022-09-21T19:26:24;100539.09;;;14.25;59.54
19594;BME280;9944;48.240;16.478;2022-09-21T19:30:32;100554.97;;;14.25;59.71
19594;BME280;9944;48.240;16.478;2022-09-21T19:34:36;100563.78;;;14.26;59.78
19594;BME280;9944;48.240;16.478;2022-09-21T19:38:39;100554.97;;;14.22;60.11
19594;BME280;9944;48.240;16.478;2022-09-21T19:42:57;100560.25;;;14.19;60.00
19594;BME280;9944;48.240;16.478;2022-09-21T19:47:10;100551.41;;;14.14;60.10
19594;BME280;9944;48.240;16.478;2022-09-21T19:51:18;100557.56;;;14.08;60.25
19594;BME280;9944;48.240;16.478;2022-09-21T19:55:23;100561.97;;;14.00;59.98
19594;BME280;9944;48.240;16.478;2022-09-21T19:59:44;100551.38;;;13.92;60.44
19594;BME280;9944;48.240;16.478;2022-09-21T20:03:49;100563.69;;;13.90;60.27
19594;BME280;9944;48.240;16.478;2022-09-21T20:07:58;100558.41;;;13.87;60.30
19594;BME280;9944;48.240;16.478;2022-09-21T20:12:12;100560.16;;;13.82;60.23
19594;BME280;9944;48.240;16.478;2022-09-21T20:16:31;100558.34;;;13.72;60.59
19594;BME280;9944;48.240;16.478;2022-09-21T20:20:39;100562.75;;;13.68;60.65
19594;BME280;9944;48.240;16.478;2022-09-21T20:24:49;100561.84;;;13.65;60.75
19594;BME280;9944;48.240;16.478;2022-09-21T20:28:54;100561.84;;;13.62;60.46
19594;BME280;9944;48.240;16.478;2022-09-21T20:32:59;100562.72;;;13.58;60.82
19594;BME280;9944;48.240;16.478;2022-09-21T20:37:09;100569.72;;;13.51;60.71
19594;BME280;9944;48.240;16.478;2022-09-21T20:41:15;100577.66;;;13.49;60.76
19594;BME280;9944;48.240;16.478;2022-09-21T20:45:19;100565.28;;;13.47;60.61
19594;BME280;9944;48.240;16.478;2022-09-21T20:49:23;100566.16;;;13.43;60.62
19594;BME280;9944;48.240;16.478;2022-09-21T20:53:27;100574.03;;;13.38;60.62
19594;BME280;9944;48.240;16.478;2022-09-21T20:57:30;100575.81;;;13.36;61.09
19594;BME280;9944;48.240;16.478;2022-09-21T21:01:33;100582.78;;;13.31;61.05
19594;BME280;9944;48.240;16.478;2022-09-21T21:05:37;100581.88;;;13.26;61.25
19594;BME280;9944;48.240;16.478;2022-09-21T21:09:42;100580.09;;;13.23;61.24
19594;BME280;9944;48.240;16.478;2022-09-21T21:13:44;100577.44;;;13.18;61.53
19594;BME280;9944;48.240;16.478;2022-09-21T21:17:49;100575.66;;;13.17;61.62
19594;BME280;9944;48.240;16.478;2022-09-21T21:21:52;100570.34;;;13.17;61.82
19594;BME280;9944;48.240;16.478;2022-09-21T21:26:03;100565.09;;;13.16;61.68
19594;BME280;9944;48.240;16.478;2022-09-21T21:30:07;100551.84;;;13.13;61.55
19594;BME280;9944;48.240;16.478;2022-09-21T21:34:11;100555.34;;;13.10;62.07
19594;BME280;9944;48.240;16.478;2022-09-21T21:38:14;100559.75;;;13.11;61.99
19594;BME280;9944;48.240;16.478;2022-09-21T21:42:19;100562.38;;;13.07;62.25